Time;durP1;ratioP1;P1;durP2;ratioP2;P2;SDS_P1;SDS_P2;PMS_P1;PMS_P2;Temp;Humidity;BMP_temperature;BMP_pressure;BME280_temperature;BME280_humidity;BME280_pressure;Samples;Min_cycle;Max_cycle;Signal;HPM_P1;HPM_P2
2023/10/14 00:01:34;;;;;;;0.00;0.00;;;12.30;99.90;;;;;;6100458;23;20379;-94
2023/10/14 00:04:04;;;;;;;0.00;0.00;;;12.40;99.90;;;;;;6101792;23;20379;-93
2023/10/14 00:06:33;;;;;;;0.00;0.00;;;12.00;99.90;;;;;;6100316;23;20407;-93
2023/10/14 00:09:01;;;;;;;0.00;0.00;;;12.10;99.90;;;;;;6098570;23;20395;-95
2023/10/14 00:11:40;;;;;;;0.00;0.00;;;11.90;99.90;;;;;;6101145;23;20456;-94
2023/10/14 00:14:16;;;;;;;0.00;0.00;;;12.00;99.90;;;;;;6099439;23;20387;-95
2023/10/14 00:16:49;;;;;;;0.00;0.00;;;12.10;99.90;;;;;;6100387;23;20376;-92
2023/10/14 00:19:17;;;;;;;0.00;0.00;;;12.00;99.90;;;;;;6099241;23;20398;-93
2023/10/14 00:21:44;;;;;;;0.00;0.00;;;11.70;99.90;;;;;;6098628;23;20518;-93
2023/10/14 00:24:15;;;;;;;0.00;0.00;;;11.90;99.90;;;;;;6100323;23;20903;-94
2023/10/14 00:26:48;;;;;;;0.00;0.00;;;11.80;99.90;;;;;;6122262;23;20371;-93
2023/10/14 00:31:43;;;;;;;0.00;0.00;;;12.20;99.90;;;;;;6124347;23;20375;-94
2023/10/14 00:34:08;;;;;;;0.00;0.00;;;11.50;99.90;;;;;;6099948;23;20379;-93
2023/10/14 00:36:34;;;;;;;0.00;0.00;;;11.20;99.90;;;;;;6099497;23;20474;-95
2023/10/14 00:39:12;;;;;;;0.00;0.00;;;11.30;99.90;;;;;;6100038;23;20417;-94
2023/10/14 00:41:58;;;;;;;0.60;0.30;;;11.10;99.90;;;;;;6101517;23;20378;-95
2023/10/14 00:44:25;;;;;;;0.00;0.00;;;11.10;99.90;;;;;;6097470;23;20371;-93
2023/10/14 00:46:52;;;;;;;0.00;0.00;;;11.10;99.90;;;;;;6101372;23;20375;-93
2023/10/14 00:49:31;;;;;;;0.00;0.00;;;11.00;99.90;;;;;;6098271;23;20403;-94
2023/10/14 00:52:06;;;;;;;0.00;0.00;;;11.10;99.90;;;;;;6103287;23;20410;-92
2023/10/14 00:57:05;;;;;;;0.00;0.00;;;10.40;99.90;;;;;;6121989;23;20382;-94
2023/10/14 00:59:30;;;;;;;0.00;0.00;;;11.20;99.90;;;;;;6099942;23;20375;-94
2023/10/14 01:02:01;;;;;;;0.00;0.00;;;10.90;99.90;;;;;;6097763;23;20386;-92
2023/10/14 01:04:32;;;;;;;0.00;0.00;;;10.80;99.90;;;;;;6099911;23;20382;-93
2023/10/14 01:07:04;;;;;;;0.00;0.00;;;11.00;99.90;;;;;;6098921;23;20473;-93
2023/10/14 01:12:11;;;;;;;0.00;0.00;;;10.50;99.90;;;;;;6124602;23;20383;-93
2023/10/14 01:14:41;;;;;;;0.00;0.00;;;10.60;99.90;;;;;;6097396;23;20459;-93
2023/10/14 01:17:09;;;;;;;0.00;0.00;;;10.30;99.90;;;;;;6099923;23;20425;-93
2023/10/14 01:19:35;;;;;;;0.00;0.00;;;10.70;99.90;;;;;;6100473;23;21251;-96
2023/10/14 01:22:01;;;;;;;0.00;0.00;;;10.50;99.90;;;;;;6103151;23;20491;-95
2023/10/14 01:24:31;;;;;;;0.00;0.00;;;10.40;99.90;;;;;;6101336;23;20375;-96
2023/10/14 01:27:07;;;;;;;0.00;0.00;;;10.30;99.90;;;;;;6100013;23;20383;-96
2023/10/14 01:29:39;;;;;;;0.00;0.00;;;10.40;99.90;;;;;;6101763;23;20437;-96
2023/10/14 01:32:36;;;;;;;0.00;0.00;;;10.40;99.90;;;;;;6103107;23;20462;-95
2023/10/14 01:35:25;;;;;;;0.00;0.00;;;10.20;99.90;;;;;;6103914;23;20375;-95
2023/10/14 01:37:55;;;;;;;0.00;0.00;;;10.20;99.90;;;;;;6101535;23;20392;-93
2023/10/14 01:42:58;;;;;;;0.00;0.00;;;10.30;99.90;;;;;;6124565;23;20786;-92
2023/10/14 01:45:30;;;;;;;0.00;0.00;;;10.20;99.90;;;;;;6097236;23;20393;-91
2023/10/14 01:48:12;;;;;;;0.00;0.00;;;10.20;99.90;;;;;;6102560;23;20406;-93
2023/10/14 01:50:46;;;;;;;0.00;0.00;;;10.10;99.90;;;;;;6098981;23;20682;-93
2023/10/14 01:53:23;;;;;;;0.00;0.00;;;10.00;99.90;;;;;;6099080;23;20450;-93
2023/10/14 01:56:01;;;;;;;0.00;0.00;;;10.30;99.90;;;;;;6104621;23;20382;-94
2023/10/14 01:58:30;;;;;;;0.00;0.00;;;10.60;99.90;;;;;;6103660;23;20379;-94
2023/10/14 02:01:21;;;;;;;0.00;0.00;;;10.20;99.90;;;;;;6105885;23;20832;-94
2023/10/14 02:03:54;;;;;;;0.00;0.00;;;9.80;99.90;;;;;;6126083;23;20896;-95
2023/10/14 02:06:28;;;;;;;0.00;0.00;;;10.60;99.90;;;;;;6103264;23;20374;-93
2023/10/14 02:08:58;;;;;;;0.00;0.00;;;9.80;99.90;;;;;;6105062;23;20422;-94
2023/10/14 02:11:24;;;;;;;0.00;0.00;;;9.80;99.90;;;;;;6103598;23;20367;-94
2023/10/14 02:13:57;;;;;;;0.00;0.00;;;9.80;99.90;;;;;;6108147;23;20535;-94
2023/10/14 02:16:44;;;;;;;0.00;0.00;;;9.80;99.90;;;;;;6085040;23;20375;-94
2023/10/14 02:19:18;;;;;;;0.00;0.00;;;9.70;99.90;;;;;;6105419;23;20389;-95
2023/10/14 02:21:57;;;;;;;0.00;0.00;;;9.70;99.90;;;;;;6135956;23;20358;-95
2023/10/14 02:24:25;;;;;;;0.00;0.00;;;9.70;99.90;;;;;;6111940;23;20442;-95
2023/10/14 02:27:06;;;;;;;0.00;0.00;;;10.00;99.90;;;;;;6126926;23;20393;-95
2023/10/14 02:29:36;;;;;;;0.00;0.00;;;9.70;99.90;;;;;;6141244;23;20385;-94
2023/10/14 02:32:02;;;;;;;0.00;0.00;;;9.70;99.90;;;;;;6135409;23;20385;-93
2023/10/14 02:34:28;;;;;;;0.00;0.00;;;9.80;99.90;;;;;;6130436;23;20373;-95
2023/10/14 02:36:54;;;;;;;0.00;0.00;;;9.90;99.90;;;;;;6136089;23;20384;-95
2023/10/14 02:39:27;;;;;;;0.00;0.00;;;9.80;99.90;;;;;;6129909;23;20409;-94
2023/10/14 02:41:59;;;;;;;0.00;0.00;;;9.90;99.90;;;;;;6140252;23;20377;-95
2023/10/14 02:44:33;;;;;;;0.00;0.00;;;9.70;99.90;;;;;;6167028;23;20429;-95
2023/10/14 02:47:08;;;;;;;0.00;0.00;;;9.30;99.90;;;;;;6137086;23;20378;-92
2023/10/14 02:49:40;;;;;;;0.00;0.00;;;9.70;99.90;;;;;;6137767;23;20377;-95
2023/10/14 02:52:17;;;;;;;0.00;0.00;;;9.50;99.90;;;;;;6137049;23;20836;-95
2023/10/14 02:54:54;;;;;;;0.00;0.00;;;9.40;99.90;;;;;;6137968;23;20401;-92
2023/10/14 02:59:47;;;;;;;0.00;0.00;;;9.90;99.90;;;;;;6164313;23;20381;-92
2023/10/14 03:02:16;;;;;;;0.00;0.00;;;9.70;99.90;;;;;;6138375;23;20792;-96
2023/10/14 03:07:29;;;;;;;0.00;0.00;;;10.20;99.90;;;;;;6160099;23;20381;-95
2023/10/14 03:09:58;;;;;;;0.05;0.03;;;10.30;99.90;;;;;;6129440;23;20404;-94
2023/10/14 03:12:27;;;;;;;0.00;0.00;;;9.60;99.90;;;;;;6134873;23;20373;-94
2023/10/14 03:14:53;;;;;;;0.00;0.00;;;9.80;99.90;;;;;;6130072;23;20381;-94
2023/10/14 03:17:40;;;;;;;0.00;0.00;;;9.50;99.90;;;;;;6134226;23;20369;-95
2023/10/14 03:20:45;;;;;;;0.00;0.00;;;9.80;99.90;;;;;;6132227;23;20373;-93
2023/10/14 03:23:19;;;;;;;0.00;0.00;;;9.50;99.90;;;;;;6145781;23;20694;-94
2023/10/14 03:26:05;;;;;;;0.00;0.00;;;9.50;99.90;;;;;;6132804;23;20379;-93
2023/10/14 03:28:31;;;;;;;0.00;0.00;;;9.50;99.90;;;;;;6154888;23;20432;-93
2023/10/14 03:30:58;;;;;;;0.00;0.00;;;9.30;99.90;;;;;;6130408;23;20388;-96
2023/10/14 03:33:32;;;;;;;0.00;0.00;;;9.60;99.90;;;;;;6135269;23;20377;-96
2023/10/14 03:36:43;;;;;;;0.00;0.00;;;9.50;99.90;;;;;;6163957;23;20400;-95
2023/10/14 03:39:37;;;;;;;0.00;0.00;;;9.40;99.90;;;;;;6106493;23;20460;-94
2023/10/14 03:42:10;;;;;;;0.00;0.00;;;9.60;99.90;;;;;;6129540;23;20365;-94
2023/10/14 03:44:36;;;;;;;0.00;0.00;;;9.30;99.90;;;;;;6128513;23;20854;-94
2023/10/14 03:47:03;;;;;;;0.00;0.00;;;9.50;99.90;;;;;;6129724;23;20378;-95
2023/10/14 03:49:32;;;;;;;0.00;0.00;;;9.90;99.90;;;;;;6127258;23;20408;-95
2023/10/14 03:51:58;;;;;;;0.00;0.00;;;9.10;99.90;;;;;;6130302;23;20365;-94
2023/10/14 03:54:26;;;;;;;0.00;0.00;;;9.40;99.90;;;;;;6128849;23;20377;-93
2023/10/14 03:56:51;;;;;;;0.00;0.00;;;9.70;99.90;;;;;;6124232;23;20379;-93
2023/10/14 03:59:22;;;;;;;0.00;0.00;;;9.50;99.90;;;;;;6100308;23;20399;-92
2023/10/14 04:01:54;;;;;;;0.00;0.00;;;8.90;99.90;;;;;;6098485;23;20442;-93
2023/10/14 04:04:21;;;;;;;0.00;0.00;;;9.70;99.90;;;;;;6100617;23;20453;-92
2023/10/14 04:09:37;;;;;;;0.00;0.00;;;9.30;99.90;;;;;;6124749;23;20457;-94
2023/10/14 04:12:08;;;;;;;0.00;0.00;;;9.40;99.90;;;;;;6099583;23;20465;-94
2023/10/14 04:14:38;;;;;;;0.00;0.00;;;9.50;99.90;;;;;;6099000;23;20931;-92
2023/10/14 04:20:38;;;;;;;0.00;0.00;;;9.20;99.90;;;;;;6123874;23;20426;-92
2023/10/14 04:22:38;;;;;;;0.00;0.00;;;9.40;99.90;;;;;;6098932;23;20371;-93
2023/10/14 04:25:22;;;;;;;0.00;0.00;;;9.40;99.90;;;;;;6099157;23;20375;-93
2023/10/14 04:35:31;;;;;;;0.00;0.00;;;9.10;99.90;;;;;;6125181;23;20922;-94
2023/10/14 04:38:01;;;;;;;0.00;0.00;;;9.20;99.90;;;;;;6099587;23;20692;-95
2023/10/14 04:40:37;;;;;;;0.00;0.00;;;9.10;99.90;;;;;;6099205;23;20450;-92
2023/10/14 04:44:11;;;;;;;0.00;0.00;;;9.30;99.90;;;;;;6100181;23;20799;-92
2023/10/14 04:46:14;;;;;;;0.00;0.00;;;9.20;99.90;;;;;;6097656;23;20462;-95
2023/10/14 04:48:39;;;;;;;0.00;0.00;;;9.00;99.90;;;;;;6100162;23;20838;-94
2023/10/14 04:51:08;;;;;;;0.00;0.00;;;9.30;99.90;;;;;;6098945;23;20780;-93
2023/10/14 04:53:34;;;;;;;0.00;0.00;;;9.30;99.90;;;;;;6099048;23;20371;-96
2023/10/14 04:56:29;;;;;;;0.00;0.00;;;10.20;99.90;;;;;;6100603;23;20422;-93
2023/10/14 04:58:56;;;;;;;0.00;0.00;;;9.20;99.90;;;;;;6115806;23;20390;-93
2023/10/14 05:01:24;;;;;;;0.00;0.00;;;9.40;99.90;;;;;;6124470;23;20391;-92
2023/10/14 05:03:57;;;;;;;0.00;0.00;;;9.20;99.90;;;;;;6123494;23;20412;-92
2023/10/14 05:06:29;;;;;;;0.00;0.00;;;9.00;99.90;;;;;;6123218;23;20374;-93
2023/10/14 05:08:55;;;;;;;0.00;0.00;;;9.10;99.90;;;;;;6123451;23;20485;-91
2023/10/14 05:11:25;;;;;;;0.00;0.00;;;9.10;99.90;;;;;;6122547;23;20695;-93
2023/10/14 05:14:08;;;;;;;0.00;0.00;;;9.40;99.90;;;;;;6124221;23;20911;-94
2023/10/14 05:16:55;;;;;;;0.00;0.00;;;9.10;99.90;;;;;;6122087;23;20390;-95
2023/10/14 05:19:35;;;;;;;0.00;0.00;;;9.20;99.90;;;;;;6123663;23;20382;-94
2023/10/14 05:22:10;;;;;;;0.00;0.00;;;9.20;99.90;;;;;;6123178;23;20385;-93
2023/10/14 05:24:39;;;;;;;0.00;0.00;;;9.20;99.90;;;;;;6097725;23;20432;-95
2023/10/14 05:27:05;;;;;;;0.00;0.00;;;8.90;99.90;;;;;;6124904;23;20692;-94
2023/10/14 05:29:35;;;;;;;0.00;0.00;;;9.20;99.90;;;;;;6099212;23;20501;-95
2023/10/14 05:32:11;;;;;;;0.00;0.00;;;8.90;99.90;;;;;;6128476;23;20411;-95
2023/10/14 05:34:39;;;;;;;0.00;0.00;;;8.90;99.90;;;;;;6098761;23;20433;-94
2023/10/14 05:37:11;;;;;;;0.00;0.00;;;9.00;99.90;;;;;;6123047;23;20402;-94
2023/10/14 05:39:41;;;;;;;0.00;0.00;;;8.80;99.90;;;;;;6123699;23;20382;-95
2023/10/14 05:42:17;;;;;;;0.00;0.00;;;8.40;99.90;;;;;;6122837;23;20406;-95
2023/10/14 05:44:47;;;;;;;0.00;0.00;;;8.90;99.90;;;;;;6125075;23;21014;-95
2023/10/14 05:47:18;;;;;;;0.00;0.00;;;8.80;99.90;;;;;;6123572;23;20860;-94
2023/10/14 05:49:44;;;;;;;0.00;0.00;;;8.60;99.90;;;;;;6123944;23;20390;-94
2023/10/14 05:52:12;;;;;;;0.00;0.00;;;8.60;99.90;;;;;;6124792;23;20425;-95
2023/10/14 05:54:42;;;;;;;0.00;0.00;;;8.70;99.90;;;;;;6126767;23;20357;-93
2023/10/14 05:57:11;;;;;;;0.00;0.00;;;8.50;99.90;;;;;;6127632;23;20374;-95
2023/10/14 05:59:37;;;;;;;0.00;0.00;;;8.80;99.90;;;;;;6127829;23;20385;-96
2023/10/14 06:02:07;;;;;;;0.00;0.00;;;9.10;99.90;;;;;;6131043;23;20372;-94
2023/10/14 06:04:45;;;;;;;0.00;0.00;;;8.60;99.90;;;;;;6132289;23;20401;-95
2023/10/14 06:07:12;;;;;;;0.00;0.00;;;8.70;99.90;;;;;;6135855;23;20404;-95
2023/10/14 06:09:38;;;;;;;0.00;0.00;;;8.60;99.90;;;;;;6134759;23;20555;-95
2023/10/14 06:12:12;;;;;;;0.00;0.00;;;8.70;99.90;;;;;;6107656;23;20376;-94
2023/10/14 06:14:39;;;;;;;0.00;0.00;;;8.60;99.90;;;;;;6137291;23;20369;-95
2023/10/14 06:17:38;;;;;;;0.00;0.00;;;9.10;99.90;;;;;;6138647;23;20413;-95
2023/10/14 06:22:59;;;;;;;0.00;0.00;;;8.70;99.90;;;;;;6166979;23;20401;-94
2023/10/14 06:25:26;;;;;;;0.00;0.00;;;8.90;99.90;;;;;;6127315;23;20409;-94
2023/10/14 06:27:53;;;;;;;0.00;0.00;;;8.80;99.90;;;;;;6131051;23;20421;-94
2023/10/14 06:30:20;;;;;;;0.00;0.00;;;9.00;99.90;;;;;;6133098;23;20376;-94
2023/10/14 06:32:49;;;;;;;0.00;0.00;;;8.70;99.90;;;;;;6129664;23;20702;-94
2023/10/14 06:35:17;;;;;;;0.00;0.00;;;9.50;99.90;;;;;;6131651;23;20370;-95
2023/10/14 06:37:47;;;;;;;0.00;0.00;;;9.20;99.90;;;;;;6135915;23;20377;-94
2023/10/14 06:40:32;;;;;;;0.00;0.00;;;9.20;99.90;;;;;;6140563;23;20404;-95
2023/10/14 06:43:06;;;;;;;0.00;0.00;;;9.50;99.90;;;;;;6140640;23;20410;-96
2023/10/14 06:45:51;;;;;;;0.00;0.00;;;9.70;99.90;;;;;;6169644;23;20385;-95
2023/10/14 06:48:45;;;;;;;0.00;0.00;;;10.20;99.90;;;;;;6141336;23;20746;-96
2023/10/14 06:51:40;;;;;;;0.00;0.00;;;9.70;99.90;;;;;;6135035;23;20413;-94
2023/10/14 06:54:09;;;;;;;0.00;0.00;;;9.60;99.90;;;;;;6139722;23;20397;-95
2023/10/14 06:56:44;;;;;;;0.00;0.00;;;9.70;99.90;;;;;;6145128;23;20466;-96
2023/10/14 06:59:13;;;;;;;0.00;0.00;;;9.70;99.90;;;;;;6134762;23;20382;-95
2023/10/14 07:01:39;;;;;;;0.00;0.00;;;9.80;99.90;;;;;;6111323;23;20387;-93
2023/10/14 07:04:12;;;;;;;0.00;0.00;;;10.00;99.90;;;;;;6112108;23;20381;-94
2023/10/14 07:06:38;;;;;;;0.00;0.00;;;9.90;99.90;;;;;;6090563;23;20391;-94
2023/10/14 07:09:17;;;;;;;0.00;0.00;;;10.20;99.90;;;;;;6140315;23;20383;-94
2023/10/14 07:11:52;;;;;;;0.00;0.00;;;10.20;99.90;;;;;;6110400;23;20379;-94
2023/10/14 07:14:26;;;;;;;0.00;0.00;;;10.10;99.90;;;;;;6137015;23;20375;-94
2023/10/14 07:16:52;;;;;;;0.00;0.00;;;10.00;99.90;;;;;;6124341;23;20461;-95
2023/10/14 07:19:20;;;;;;;0.00;0.00;;;10.30;99.90;;;;;;6127113;23;20359;-95
2023/10/14 07:21:51;;;;;;;0.00;0.00;;;10.10;99.90;;;;;;6131367;23;20452;-94
2023/10/14 07:24:22;;;;;;;0.00;0.00;;;9.80;99.90;;;;;;6138535;23;20383;-95
2023/10/14 07:26:48;;;;;;;0.00;0.00;;;9.70;99.90;;;;;;6110930;23;20369;-95
2023/10/14 07:35:24;;;;;;;0.00;0.00;;;9.60;99.90;;;;;;6175338;23;20403;-95
2023/10/14 07:37:53;;;;;;;0.00;0.00;;;9.70;99.90;;;;;;6129374;23;20924;-94
2023/10/14 07:40:27;;;;;;;0.00;0.00;;;10.30;99.90;;;;;;6131001;23;20365;-95
2023/10/14 07:43:13;;;;;;;0.00;0.00;;;10.10;99.90;;;;;;6129288;23;20372;-93
2023/10/14 07:45:43;;;;;;;13.00;1.50;;;10.00;99.90;;;;;;6129073;23;20382;-94
2023/10/14 07:48:11;;;;;;;13.70;1.73;;;10.30;99.90;;;;;;6131043;23;20504;-94
2023/10/14 07:50:50;;;;;;;11.43;1.05;;;10.50;99.90;;;;;;6127285;23;20970;-96
2023/10/14 07:53:23;;;;;;;14.18;1.05;;;11.20;99.90;;;;;;6131199;23;20369;-95
2023/10/14 07:55:57;;;;;;;13.60;1.20;;;10.90;99.90;;;;;;6131043;23;20369;-96
2023/10/14 07:58:43;;;;;;;11.27;1.25;;;11.20;99.90;;;;;;6136315;23;20420;-95
2023/10/14 08:01:49;;;;;;;11.10;1.07;;;10.50;99.90;;;;;;6142398;23;20440;-94
2023/10/14 08:04:18;;;;;;;9.90;0.80;;;11.20;99.90;;;;;;6137383;23;20381;-96
2023/10/14 08:07:27;;;;;;;13.07;1.30;;;11.50;99.90;;;;;;6140887;23;20389;-96
2023/10/14 08:09:53;;;;;;;12.82;0.95;;;11.40;99.90;;;;;;6134791;23;20445;-94
2023/10/14 08:12:22;;;;;;;10.43;1.00;;;11.60;99.90;;;;;;6136474;23;20438;-95
2023/10/14 08:14:47;;;;;;;10.03;0.90;;;11.60;99.90;;;;;;6131966;23;20396;-94
2023/10/14 08:17:13;;;;;;;11.83;1.20;;;11.70;99.90;;;;;;6137242;23;20373;-95
2023/10/14 08:19:39;;;;;;;8.55;0.90;;;11.90;99.90;;;;;;6129960;23;20937;-96
2023/10/14 08:22:05;;;;;;;9.88;1.40;;;12.10;99.90;;;;;;6132777;23;20386;-95
2023/10/14 08:24:33;;;;;;;11.43;1.50;;;12.40;99.90;;;;;;6154864;23;20371;-94
2023/10/14 08:27:02;;;;;;;8.93;0.80;;;11.90;99.90;;;;;;6135521;23;20430;-94
2023/10/14 08:29:32;;;;;;;8.82;1.00;;;12.20;99.90;;;;;;6132153;23;20395;-95
2023/10/14 08:32:47;;;;;;;10.75;0.90;;;12.70;99.90;;;;;;6152197;23;20355;-96
2023/10/14 08:35:29;;;;;;;11.63;1.20;;;12.40;99.90;;;;;;6112001;23;20453;-93
2023/10/14 08:41:14;;;;;;;7.63;0.95;;;12.80;99.90;;;;;;6159726;23;20953;-95
2023/10/14 08:43:44;;;;;;;10.23;0.90;;;13.40;99.90;;;;;;6133764;23;20420;-95
2023/10/14 08:46:13;;;;;;;12.35;1.48;;;13.10;99.90;;;;;;6133512;23;20375;-94
2023/10/14 08:48:42;;;;;;;12.18;1.23;;;13.30;99.90;;;;;;6129074;23;20399;-96
2023/10/14 08:51:39;;;;;;;10.13;1.20;;;13.50;99.90;;;;;;6153644;23;20430;-95
2023/10/14 08:54:10;;;;;;;9.73;1.43;;;13.40;99.90;;;;;;6126759;23;20379;-94
2023/10/14 08:56:56;;;;;;;13.82;1.10;;;13.50;99.90;;;;;;6113155;23;20371;-95
2023/10/14 08:59:59;;;;;;;9.68;1.10;;;13.40;99.90;;;;;;6136607;23;20371;-95
2023/10/14 09:02:36;;;;;;;10.38;1.05;;;13.40;99.90;;;;;;6134775;23;20379;-96
2023/10/14 09:05:11;;;;;;;11.07;1.00;;;13.30;99.90;;;;;;6153993;23;20462;-95
2023/10/14 09:08:11;;;;;;;9.60;0.80;;;12.90;99.90;;;;;;6134245;23;20407;-95
2023/10/14 09:10:53;;;;;;;9.45;1.27;;;12.90;99.90;;;;;;6125886;23;20375;-96
2023/10/14 09:13:22;;;;;;;9.45;1.02;;;13.00;99.90;;;;;;6135047;23;20406;-96
2023/10/14 09:15:49;;;;;;;9.68;1.00;;;13.50;99.90;;;;;;6131796;23;20380;-94
2023/10/14 09:18:17;;;;;;;10.77;1.00;;;13.40;99.90;;;;;;6141773;23;20367;-95
2023/10/14 09:21:17;;;;;;;8.73;1.60;;;13.50;99.90;;;;;;6140966;23;20379;-96
2023/10/14 09:23:57;;;;;;;8.32;1.02;;;13.30;99.90;;;;;;6140200;23;20414;-95
2023/10/14 09:26:59;;;;;;;11.82;1.25;;;13.50;99.90;;;;;;6171302;23;20486;-96
2023/10/14 09:29:45;;;;;;;13.93;1.38;;;13.90;99.90;;;;;;6134748;23;20835;-95
2023/10/14 09:32:12;;;;;;;13.10;1.27;;;13.80;99.90;;;;;;6131819;23;20371;-95
2023/10/14 09:35:00;;;;;;;9.98;0.80;;;13.90;99.90;;;;;;6140876;23;20382;-95
2023/10/14 09:37:44;;;;;;;11.02;1.17;;;13.90;99.90;;;;;;6138692;23;20378;-94
2023/10/14 09:40:14;;;;;;;10.40;0.80;;;14.00;99.90;;;;;;6132771;23;20386;-96
2023/10/14 09:42:54;;;;;;;8.60;0.70;;;14.70;99.90;;;;;;6138239;23;20386;-94
2023/10/14 09:45:27;;;;;;;6.72;0.75;;;14.20;97.50;;;;;;6143568;23;20741;-96
2023/10/14 09:47:57;;;;;;;7.37;0.63;;;14.10;95.60;;;;;;6116432;23;20494;-92
2023/10/14 09:50:29;;;;;;;6.80;0.40;;;13.80;99.90;;;;;;6138382;23;20871;-95
2023/10/14 09:55:57;;;;;;;5.25;0.40;;;13.20;99.90;;;;;;6183563;23;20400;-96
2023/10/14 10:04:23;;;;;;;4.85;0.40;;;13.00;99.90;;;;;;6183640;23;20443;-94
2023/10/14 10:07:30;;;;;;;4.68;0.40;;;13.20;99.90;;;;;;6130846;23;20710;-96
2023/10/14 10:10:32;;;;;;;5.03;0.30;;;13.40;99.90;;;;;;6141593;23;20392;-95
2023/10/14 10:13:29;;;;;;;5.68;0.52;;;13.50;99.10;;;;;;6148194;23;20373;-96
2023/10/14 10:16:20;;;;;;;3.72;0.40;;;13.80;98.60;;;;;;6172328;23;20385;-94
2023/10/14 10:18:56;;;;;;;7.30;0.57;;;14.30;99.90;;;;;;6122793;23;20385;-95
2023/10/14 10:22:02;;;;;;;5.13;0.40;;;14.30;99.90;;;;;;6143223;23;20384;-95
2023/10/14 10:24:38;;;;;;;5.40;0.83;;;14.50;99.90;;;;;;6106158;23;20978;-96
2023/10/14 10:27:04;;;;;;;8.25;0.88;;;15.00;99.00;;;;;;6142088;23;20377;-95
2023/10/14 10:29:45;;;;;;;8.18;0.88;;;15.00;99.90;;;;;;6144635;23;20456;-96
2023/10/14 10:32:23;;;;;;;8.45;0.68;;;14.90;99.80;;;;;;6142743;23;20381;-95
2023/10/14 10:35:07;;;;;;;7.57;0.85;;;15.00;99.90;;;;;;6139401;23;20388;-96
2023/10/14 10:37:53;;;;;;;7.15;0.90;;;15.20;98.00;;;;;;6139835;23;20381;-96
2023/10/14 10:40:27;;;;;;;7.78;0.90;;;15.20;97.40;;;;;;6144513;23;20399;-96
2023/10/14 10:43:14;;;;;;;7.40;0.82;;;15.40;91.70;;;;;;6121353;23;20523;-93
2023/10/14 10:45:40;;;;;;;9.25;1.00;;;14.90;91.00;;;;;;6141372;23;20385;-93
2023/10/14 10:48:16;;;;;;;8.70;1.10;;;14.40;90.60;;;;;;6140542;23;20476;-94
2023/10/14 10:50:49;;;;;;;11.23;1.63;;;14.20;94.10;;;;;;6134942;23;20370;-95
2023/10/14 10:53:20;;;;;;;8.77;1.00;;;14.20;92.00;;;;;;6139079;23;20481;-96
2023/10/14 10:56:00;;;;;;;7.95;0.93;;;14.40;96.90;;;;;;6123341;23;20381;-95
2023/10/14 10:58:41;;;;;;;9.73;0.90;;;14.20;91.00;;;;;;6152144;23;20378;-95
2023/10/14 11:01:08;;;;;;;10.90;1.13;;;14.20;91.10;;;;;;6147768;23;20437;-94
2023/10/14 11:03:49;;;;;;;8.95;1.13;;;14.10;93.70;;;;;;6150195;23;20402;-95
2023/10/14 11:06:19;;;;;;;11.30;1.23;;;13.70;92.20;;;;;;6154156;23;20818;-96
2023/10/14 11:08:48;;;;;;;11.35;1.40;;;13.60;94.30;;;;;;6171602;23;20428;-94
2023/10/14 11:11:17;;;;;;;10.77;1.37;;;13.80;95.10;;;;;;6146729;23;20392;-94
2023/10/14 11:13:46;;;;;;;10.77;1.02;;;13.30;96.30;;;;;;6148340;23;20381;-95
2023/10/14 11:16:21;;;;;;;10.13;1.27;;;13.20;96.50;;;;;;6170904;23;20372;-96
2023/10/14 11:22:11;;;;;;;9.70;1.58;;;13.10;99.10;;;;;;6189900;23;20402;-96
2023/10/14 11:24:43;;;;;;;11.00;1.40;;;13.00;99.90;;;;;;6169598;23;20403;-94
2023/10/14 11:27:13;;;;;;;9.57;1.30;;;13.10;99.90;;;;;;6140543;23;20374;-94
2023/10/14 11:29:40;;;;;;;11.55;1.10;;;13.90;99.90;;;;;;6137244;23;20397;-95
2023/10/14 11:32:12;;;;;;;10.35;1.38;;;13.70;99.90;;;;;;6158633;23;20371;-95
2023/10/14 11:34:51;;;;;;;11.40;1.35;;;13.90;99.90;;;;;;6132463;23;20452;-94
2023/10/14 11:37:17;;;;;;;9.48;1.10;;;14.50;99.90;;;;;;6135968;23;20397;-95
2023/10/14 11:39:43;;;;;;;12.65;1.48;;;14.30;99.90;;;;;;6136430;23;20457;-94
2023/10/14 11:42:09;;;;;;;9.10;1.40;;;14.80;99.90;;;;;;6142633;23;20385;-95
2023/10/14 11:44:42;;;;;;;9.15;1.38;;;15.60;99.90;;;;;;6142341;23;20401;-95
2023/10/14 11:47:16;;;;;;;11.67;1.63;;;15.00;92.20;;;;;;6138359;23;20385;-95
2023/10/14 11:49:49;;;;;;;12.45;1.75;;;14.80;86.60;;;;;;6132943;23;20393;-95
2023/10/14 11:52:21;;;;;;;11.97;1.30;;;14.60;75.40;;;;;;6136679;23;20376;-96
2023/10/14 11:54:52;;;;;;;10.35;1.50;;;14.20;80.70;;;;;;6137556;23;20384;-95
2023/10/14 11:57:20;;;;;;;11.57;1.65;;;14.20;82.00;;;;;;6130650;23;21066;-96
2023/10/14 11:59:58;;;;;;;9.18;1.40;;;13.70;80.20;;;;;;6134918;23;20484;-95
2023/10/14 12:02:37;;;;;;;9.77;1.23;;;14.10;77.50;;;;;;6138268;23;20365;-95
2023/10/14 12:05:19;;;;;;;11.63;1.40;;;13.80;84.70;;;;;;6161638;23;20374;-95
2023/10/14 12:07:53;;;;;;;8.60;1.00;;;13.80;76.20;;;;;;6139207;23;20401;-95
2023/10/14 12:10:25;;;;;;;7.55;1.05;;;13.80;71.80;;;;;;6140086;23;20975;-95
2023/10/14 12:13:06;;;;;;;8.18;0.80;;;14.00;70.30;;;;;;6134448;23;20444;-94
2023/10/14 12:15:37;;;;;;;7.45;0.95;;;13.80;68.40;;;;;;6137401;23;20512;-93
2023/10/14 12:18:23;;;;;;;9.13;1.03;;;14.10;65.00;;;;;;6132053;23;20374;-95
2023/10/14 12:20:52;;;;;;;8.70;1.15;;;14.40;75.10;;;;;;6133074;23;20424;-95
2023/10/14 12:23:23;;;;;;;8.13;0.82;;;13.80;73.90;;;;;;6137323;23;20393;-95
2023/10/14 12:25:54;;;;;;;9.87;1.10;;;14.40;66.30;;;;;;6144984;23;20393;-94
2023/10/14 12:28:38;;;;;;;9.02;1.00;;;13.90;69.60;;;;;;6146279;23;20489;-96
2023/10/14 12:31:12;;;;;;;9.45;1.25;;;14.00;77.50;;;;;;6141937;23;20381;-95
2023/10/14 12:33:54;;;;;;;10.95;1.45;;;14.10;83.20;;;;;;6137720;23;20373;-95
2023/10/14 12:36:22;;;;;;;9.02;0.90;;;14.40;81.20;;;;;;6136120;23;20838;-95
2023/10/14 12:38:50;;;;;;;7.32;0.85;;;14.70;69.00;;;;;;6134719;23;20691;-94
2023/10/14 12:41:22;;;;;;;9.10;1.35;;;14.40;73.40;;;;;;6143027;23;20384;-95
2023/10/14 12:44:00;;;;;;;9.00;1.17;;;14.90;70.40;;;;;;6141275;23;20964;-95
2023/10/14 12:49:48;;;;;;;10.30;1.08;;;14.10;96.60;;;;;;6172305;23;21090;-94
2023/10/14 12:52:22;;;;;;;10.43;1.35;;;14.20;98.10;;;;;;6138962;23;20377;-96
2023/10/14 12:58:59;;;;;;;9.40;1.10;;;13.30;96.10;;;;;;6078427;23;20502;-95
2023/10/14 13:02:03;;;;;;;14.27;1.40;;;12.80;98.70;;;;;;6099403;23;20390;-96
2023/10/14 13:04:38;;;;;;;8.00;0.70;;;12.60;99.90;;;;;;6142146;23;20385;-94
2023/10/14 13:10:41;;;;;;;11.75;1.25;;;12.70;99.90;;;;;;6165670;23;20361;-95
2023/10/14 13:13:17;;;;;;;10.90;1.77;;;12.50;99.90;;;;;;6134901;23;20846;-96
2023/10/14 13:15:43;;;;;;;10.75;1.17;;;12.60;98.30;;;;;;6135451;23;20425;-94
2023/10/14 13:22:00;;;;;;;9.32;1.30;;;12.80;97.70;;;;;;6142851;23;20552;31
2023/10/14 13:24:31;;;;;;;8.27;1.10;;;13.00;96.20;;;;;;6091826;23;20382;-95
2023/10/14 13:27:20;;;;;;;8.10;0.77;;;13.10;79.30;;;;;;6141385;23;20378;-94
2023/10/14 13:30:08;;;;;;;6.70;0.98;;;13.40;77.60;;;;;;6144075;23;20379;-96
2023/10/14 13:32:37;;;;;;;8.98;0.93;;;13.30;85.40;;;;;;6145612;23;20395;-96
2023/10/14 13:35:56;;;;;;;12.17;1.20;;;13.70;77.30;;;;;;6115959;23;20375;-95
2023/10/14 13:41:28;;;;;;;;;;;;;;;;;;;;;
2023/10/14 13:43:56;;;;;;;8.68;1.25;;;13.00;95.80;;;;;;5945287;24;21014;-96
2023/10/14 13:46:24;;;;;;;10.02;1.27;;;12.70;94.70;;;;;;5920798;24;20782;-95
2023/10/14 13:48:59;;;;;;;7.80;1.10;;;12.60;95.20;;;;;;5914284;24;20413;-94
2023/10/14 13:51:28;;;;;;;8.85;0.90;;;12.90;92.20;;;;;;5909973;24;20390;-95
2023/10/14 13:53:54;;;;;;;8.35;1.00;;;12.60;93.80;;;;;;5997266;23;20386;-95
2023/10/14 13:56:43;;;;;;;9.82;1.35;;;13.20;92.80;;;;;;6028865;23;20404;-95
2023/10/14 13:59:13;;;;;;;8.60;1.00;;;12.70;94.70;;;;;;6022659;23;20431;-96
2023/10/14 14:01:44;;;;;;;8.07;0.85;;;13.20;93.90;;;;;;6026985;23;20380;-96
2023/10/14 14:04:17;;;;;;;10.30;0.90;;;13.40;93.30;;;;;;6029087;23;20861;-95
2023/10/14 14:20:58;;;;;;;8.98;0.90;;;12.60;85.10;;;;;;6145771;23;20394;-95
2023/10/14 14:23:27;;;;;;;8.68;1.00;;;12.90;91.10;;;;;;6116233;23;20385;-96
2023/10/14 14:25:55;;;;;;;8.50;0.77;;;13.00;87.60;;;;;;6116306;23;20358;-95
2023/10/14 14:28:50;;;;;;;7.40;0.90;;;12.60;80.10;;;;;;6119694;23;20532;-96
2023/10/14 14:31:37;;;;;;;8.38;0.93;;;12.50;75.20;;;;;;6117808;23;21020;-96
2023/10/14 14:34:29;;;;;;;7.13;0.77;;;12.50;75.70;;;;;;6124090;23;20378;-95
2023/10/14 14:36:55;;;;;;;9.40;0.85;;;12.40;78.60;;;;;;6117543;23;20493;-95
2023/10/14 14:45:44;;;;;;;7.78;1.05;;;12.50;78.80;;;;;;6143899;23;20416;-95
2023/10/14 14:49:14;;;;;;;6.88;0.80;;;12.60;80.60;;;;;;6023669;23;20529;-93
2023/10/14 14:52:19;;;;;;;10.27;1.03;;;12.70;83.10;;;;;;6081889;23;20403;-93
2023/10/14 14:54:48;;;;;;;10.45;1.13;;;12.80;78.10;;;;;;6113521;23;20379;-95
2023/10/14 15:01:30;;;;;;;;;;;;;;;;;;;;;
2023/10/14 15:12:11;;;;;;;6.70;0.80;;;12.40;89.60;;;;;;6197264;23;20401;-95
2023/10/14 16:17:25;;;;;;;11.40;1.58;;;11.40;93.00;;;;;;6188814;23;20383;-95